首页
METAR-TAF:

METAR-TAF

机场 :

倫敦盧頓機場

卢顿, 英格兰

纬度: 51-52N, 经度: 000-22W, 海拔: 160米

当前天气观测

该预报发布于28分钟前的02:20 UTC
风速3节,风向南转西南
温度 2°C
湿度 100%
气压 1008 hPa
能见度10公里或以上
少量云层高于3500英尺
散云层高于4200英尺

METAR: EGGW 170220Z AUTO 21003KT 9999 FEW035 SCT042 02/02 Q1008

时间: 02:48 (02:48 UTC)

预报

该预报发布于30分钟前的02:18 UTC
预报有效从17日的 02点(UTC)到 17日的 24点(UTC)
风速3节,风向
能见度10公里或以上
散云层高于4500英尺
成为
从 17日的 02点(UTC)到 17日的 06点(UTC)
能見度: 4000
轻雾
几率 30%
从 17日的 04点(UTC)到 17日的 10点(UTC)
能見度: 0200
成为
从 17日的 10点(UTC)到 17日的 13点(UTC)
能见度10公里或以上
成为
从 17日的 15点(UTC)到 17日的 18点(UTC)
多云层高于600英尺
短暂存在
从 17日的 18点(UTC)到 17日的 24点(UTC)
能見度: 2000
多云层高于200英尺
轻雾, 雨, 毛毛雨
几率 40% :
短暂存在
从 17日的 18点(UTC)到 17日的 24点(UTC)
能見度: 0300
多云层低于100英尺
成为
从 17日的 22点(UTC)到 17日的 24点(UTC)
风速10节,风向北转东北

TAF: EGGW 170218Z 1702/1724 19003KT 9999 SCT045 BECMG 1702/1706 4000 BR PROB30 1704/1710 0200 FG VV/// BECMG 1710/1713 9999 NSW BECMG 1715/1718 BKN006 TEMPO 1718/1724 2000 BR RADZ BKN002 PROB40 TEMPO 1718/1724 0300 FG BKN000 BECMG 1722/1724 02010KT

超过4000个机场的气象观测和天气预报(METAR&TAF报告)。

可查询的气象台以黄色和红色小点在地图上表示。

将鼠标移到小点上方,可查看气象台名称。

然后点击查看天气观测和预报。

如需切换地图:点击带黑十字的绿色按钮放大地图;点击带横线的绿色按钮缩小地图;或者点击绿色箭头查看邻近地区的地图。


METAR-TAF: